createdAt,value
2022-09-29T00:02:11.607Z,51.80
2022-09-29T00:04:38.701Z,51.70
2022-09-29T00:07:05.793Z,51.70
2022-09-29T00:09:32.896Z,51.70
2022-09-29T00:12:00.378Z,51.70
2022-09-29T00:14:27.396Z,51.80
2022-09-29T00:16:54.418Z,51.80
2022-09-29T00:19:21.605Z,51.80
2022-09-29T00:21:48.648Z,51.80
2022-09-29T00:24:15.634Z,51.80
2022-09-29T00:26:45.088Z,51.80
2022-09-29T00:29:12.157Z,51.80
2022-09-29T00:31:39.341Z,51.80
2022-09-29T00:34:06.474Z,51.80
2022-09-29T00:36:33.520Z,51.80
2022-09-29T00:39:00.719Z,51.80
2022-09-29T00:41:31.183Z,51.90
2022-09-29T00:44:07.239Z,51.90
2022-09-29T00:46:55.718Z,51.90
2022-09-29T00:49:47.635Z,51.90
2022-09-29T00:52:35.591Z,51.90
2022-09-29T00:55:15.901Z,51.90
2022-09-29T00:57:46.852Z,52.00
2022-09-29T01:00:16.264Z,52.00
2022-09-29T01:03:00.268Z,52.00
2022-09-29T01:05:34.549Z,52.10
2022-09-29T01:08:21.169Z,52.10
2022-09-29T01:10:50.691Z,52.00
2022-09-29T01:13:18.841Z,52.10
2022-09-29T01:15:46.192Z,52.00
2022-09-29T01:18:13.412Z,52.00
2022-09-29T01:20:51.851Z,52.00
2022-09-29T01:23:58.669Z,52.00
2022-09-29T01:27:01.442Z,51.90
2022-09-29T01:30:06.851Z,51.90
2022-09-29T01:32:55.040Z,51.90
2022-09-29T01:35:59.567Z,51.90
2022-09-29T01:38:46.979Z,51.90
2022-09-29T01:41:36.798Z,51.90
2022-09-29T01:44:34.131Z,51.90
2022-09-29T01:47:10.824Z,51.80
2022-09-29T01:49:43.666Z,52.40
2022-09-29T01:52:20.609Z,51.80
2022-09-29T01:55:02.694Z,51.80
2022-09-29T01:57:39.595Z,51.80
2022-09-29T02:00:11.062Z,51.90
2022-09-29T02:02:48.187Z,51.90
2022-09-29T02:05:44.536Z,51.80
2022-09-29T02:08:22.252Z,51.90
2022-09-29T02:11:02.948Z,51.90
2022-09-29T02:13:35.414Z,51.90
2022-09-29T02:16:04.323Z,51.80
2022-09-29T02:18:40.122Z,51.80
2022-09-29T02:21:07.456Z,51.90
2022-09-29T02:23:34.484Z,51.90
2022-09-29T02:26:02.881Z,51.90
2022-09-29T02:28:29.871Z,51.90
2022-09-29T02:30:57.156Z,51.90
2022-09-29T02:33:25.950Z,51.90
2022-09-29T02:36:20.562Z,51.90
2022-09-29T02:39:15.230Z,51.90
2022-09-29T02:42:21.983Z,51.90
2022-09-29T02:45:16.034Z,51.90
2022-09-29T02:48:00.050Z,51.90
2022-09-29T02:50:50.668Z,51.90
2022-09-29T02:53:52.719Z,51.90
2022-09-29T02:56:54.270Z,52.00
2022-09-29T02:59:27.618Z,52.00
2022-09-29T03:01:57.277Z,52.00
2022-09-29T03:04:26.928Z,52.00
2022-09-29T03:06:54.286Z,52.10
2022-09-29T03:09:21.729Z,52.10
2022-09-29T03:11:48.733Z,52.70
2022-09-29T03:14:16.129Z,52.10
2022-09-29T03:16:44.237Z,52.20
2022-09-29T03:19:11.464Z,52.20
2022-09-29T03:21:38.480Z,52.10
2022-09-29T03:24:06.384Z,52.10
2022-09-29T03:26:33.815Z,52.20
2022-09-29T03:29:01.214Z,52.10
2022-09-29T03:31:28.342Z,52.10
2022-09-29T03:33:55.483Z,52.10
2022-09-29T03:36:22.509Z,52.20
2022-09-29T03:38:49.587Z,52.10
2022-09-29T03:41:16.664Z,52.00
2022-09-29T03:43:43.779Z,52.00
2022-09-29T03:46:10.897Z,52.00
2022-09-29T03:48:38.088Z,52.00
2022-09-29T03:51:06.284Z,52.00
2022-09-29T03:53:35.679Z,52.00
2022-09-29T03:56:03.540Z,52.00
2022-09-29T03:58:30.554Z,52.00
2022-09-29T04:00:57.598Z,52.00
2022-09-29T04:03:24.721Z,52.00
2022-09-29T04:05:51.699Z,52.00
2022-09-29T04:08:18.713Z,52.00
2022-09-29T04:10:47.873Z,51.90
2022-09-29T04:13:19.647Z,51.90
2022-09-29T04:15:47.807Z,52.00
2022-09-29T04:18:15.068Z,52.00
2022-09-29T04:20:42.212Z,52.00
2022-09-29T04:23:09.232Z,52.30
2022-09-29T04:25:36.252Z,52.00
2022-09-29T04:28:03.660Z,52.00
2022-09-29T04:30:30.706Z,52.00
2022-09-29T04:32:57.724Z,52.00
2022-09-29T04:35:24.743Z,52.00
2022-09-29T04:37:57.775Z,52.00
2022-09-29T04:40:25.634Z,52.10
2022-09-29T04:42:52.791Z,52.20
2022-09-29T04:45:20.062Z,52.20
2022-09-29T04:47:47.143Z,52.20
2022-09-29T04:50:14.415Z,52.20
2022-09-29T04:52:43.595Z,52.30
2022-09-29T04:55:11.885Z,52.30
2022-09-29T04:57:41.346Z,52.30
2022-09-29T05:00:09.557Z,52.30
2022-09-29T05:02:38.261Z,52.30
2022-09-29T05:05:06.824Z,52.30
2022-09-29T05:07:36.163Z,52.30
2022-09-29T05:10:04.434Z,52.30
2022-09-29T05:12:31.527Z,52.30
2022-09-29T05:14:58.695Z,52.30
2022-09-29T05:17:26.811Z,52.30
2022-09-29T05:19:57.426Z,52.30
2022-09-29T05:22:26.120Z,52.50
2022-09-29T05:24:53.553Z,52.60
2022-09-29T05:27:22.585Z,52.70
2022-09-29T05:29:49.742Z,52.70
2022-09-29T05:32:16.947Z,52.70
2022-09-29T05:34:44.229Z,52.70
2022-09-29T05:37:11.925Z,52.80
2022-09-29T05:39:39.955Z,53.20
2022-09-29T05:42:11.746Z,52.90
2022-09-29T05:44:38.755Z,52.90
2022-09-29T05:47:05.813Z,52.90
2022-09-29T05:49:33.297Z,52.70
2022-09-29T05:52:00.570Z,52.70
2022-09-29T05:54:27.758Z,52.60
2022-09-29T05:56:55.093Z,52.40
2022-09-29T05:59:22.180Z,52.30
2022-09-29T06:01:49.917Z,52.20
2022-09-29T06:04:17.684Z,52.20
2022-09-29T06:06:44.775Z,52.20
2022-09-29T06:09:12.054Z,52.40
2022-09-29T06:11:39.176Z,52.60
2022-09-29T06:14:07.103Z,52.90
2022-09-29T06:16:34.603Z,53.20
2022-09-29T06:19:03.177Z,53.30
2022-09-29T06:21:31.151Z,53.30
2022-09-29T06:23:58.670Z,53.20
2022-09-29T06:26:27.599Z,53.40
2022-09-29T06:28:55.730Z,53.40
2022-09-29T06:31:25.518Z,53.50
2022-09-29T06:33:53.327Z,53.50
2022-09-29T06:36:44.869Z,53.40
2022-09-29T06:39:14.212Z,53.30
2022-09-29T06:41:42.164Z,53.30
2022-09-29T06:44:09.570Z,53.20
2022-09-29T06:46:37.842Z,53.10
2022-09-29T06:49:04.912Z,53.00
2022-09-29T06:51:44.708Z,53.00
2022-09-29T06:54:15.230Z,52.80
2022-09-29T06:56:42.912Z,52.80
2022-09-29T06:59:09.903Z,52.70
2022-09-29T07:01:36.975Z,52.60
2022-09-29T07:04:04.164Z,52.50
2022-09-29T07:06:31.664Z,52.50
2022-09-29T07:09:00.131Z,52.50
2022-09-29T07:11:29.270Z,52.50
2022-09-29T07:13:56.412Z,52.50
2022-09-29T07:16:26.814Z,52.40
2022-09-29T07:18:54.014Z,52.50
2022-09-29T07:21:21.606Z,52.40
2022-09-29T07:23:48.761Z,52.30
2022-09-29T07:26:19.567Z,52.30
2022-09-29T07:28:47.293Z,52.20
2022-09-29T07:31:17.663Z,52.10
2022-09-29T07:33:46.762Z,52.10
2022-09-29T07:36:15.349Z,51.90
2022-09-29T07:38:42.727Z,51.70
2022-09-29T07:41:11.904Z,51.50
2022-09-29T07:43:39.857Z,51.30
2022-09-29T07:46:08.090Z,51.40
2022-09-29T07:48:36.823Z,51.40
2022-09-29T07:51:11.132Z,51.50
2022-09-29T07:53:38.446Z,51.50
2022-09-29T07:56:08.375Z,51.50
2022-09-29T07:58:35.782Z,51.50
2022-09-29T08:01:05.392Z,51.40
2022-09-29T08:03:33.196Z,51.80
2022-09-29T08:06:00.221Z,51.10
2022-09-29T08:08:27.559Z,50.90
2022-09-29T08:11:03.262Z,50.70
2022-09-29T08:13:31.367Z,50.60
2022-09-29T08:16:00.148Z,50.50
2022-09-29T08:18:28.472Z,50.30
2022-09-29T08:20:57.724Z,50.30
2022-09-29T08:23:27.282Z,50.20
2022-09-29T08:26:05.982Z,50.10
2022-09-29T08:28:35.523Z,50.10
2022-09-29T08:31:04.899Z,50.00
2022-09-29T08:33:33.244Z,49.90
2022-09-29T08:36:01.604Z,49.80
2022-09-29T08:38:28.667Z,49.80
2022-09-29T08:40:57.536Z,49.60
2022-09-29T08:43:35.469Z,49.60
2022-09-29T08:46:08.210Z,49.60
2022-09-29T08:48:55.465Z,49.60
2022-09-29T08:51:42.704Z,49.60
2022-09-29T08:54:38.914Z,49.80
2022-09-29T08:57:15.612Z,49.90
2022-09-29T08:59:42.612Z,50.10
2022-09-29T09:02:40.471Z,50.30
2022-09-29T09:05:34.057Z,50.40
2022-09-29T09:08:31.089Z,50.50
2022-09-29T09:11:10.368Z,50.60
2022-09-29T09:14:10.264Z,50.70
2022-09-29T09:16:54.746Z,50.40
2022-09-29T09:19:55.496Z,49.90
2022-09-29T09:22:46.294Z,49.70
2022-09-29T09:25:29.188Z,49.70
2022-09-29T09:28:17.879Z,49.60
2022-09-29T09:31:00.729Z,49.60
2022-09-29T09:33:59.291Z,49.70
2022-09-29T09:36:41.516Z,49.90
2022-09-29T09:39:21.462Z,49.90
2022-09-29T09:41:53.140Z,50.10
2022-09-29T09:44:43.111Z,50.10
2022-09-29T09:47:35.059Z,50.00
2022-09-29T09:50:14.004Z,50.10
2022-09-29T09:53:01.367Z,50.20
2022-09-29T09:55:30.407Z,50.20
2022-09-29T09:58:22.219Z,50.00
2022-09-29T10:00:54.889Z,50.10
2022-09-29T10:03:22.101Z,50.20
2022-09-29T10:05:49.903Z,50.30
2022-09-29T10:08:38.507Z,50.30
2022-09-29T10:11:27.349Z,50.40
2022-09-29T10:14:16.881Z,50.50
2022-09-29T10:17:07.302Z,50.60
2022-09-29T10:19:58.909Z,50.70
2022-09-29T10:22:27.837Z,50.60
2022-09-29T10:25:19.836Z,50.40
2022-09-29T10:27:53.826Z,50.30
2022-09-29T10:30:24.778Z,50.20
2022-09-29T10:32:59.690Z,50.10
2022-09-29T10:35:37.170Z,50.10
2022-09-29T10:38:16.563Z,50.10
2022-09-29T10:40:59.466Z,50.10
2022-09-29T10:43:32.744Z,50.10
2022-09-29T10:45:59.937Z,50.10
2022-09-29T10:48:28.162Z,50.10
2022-09-29T10:53:39.211Z,50.10
2022-09-29T10:56:22.876Z,50.10
2022-09-29T10:59:05.693Z,50.10
2022-09-29T11:01:43.540Z,50.20
2022-09-29T11:04:31.866Z,50.10
2022-09-29T11:07:11.181Z,50.20
2022-09-29T11:09:41.156Z,50.20
2022-09-29T11:12:39.180Z,50.20
2022-09-29T11:15:29.054Z,50.20
2022-09-29T11:17:56.780Z,50.10
2022-09-29T11:20:31.653Z,50.10
2022-09-29T11:23:15.787Z,50.10
2022-09-29T11:26:10.416Z,50.10
2022-09-29T11:29:04.445Z,50.00
2022-09-29T11:32:11.435Z,50.20
2022-09-29T11:34:59.953Z,50.20
2022-09-29T11:37:58.095Z,50.10
2022-09-29T11:40:48.877Z,50.20
2022-09-29T11:43:46.875Z,50.10
2022-09-29T11:46:31.453Z,49.90
2022-09-29T11:49:38.125Z,50.00
2022-09-29T11:52:38.600Z,49.90
2022-09-29T11:55:39.049Z,49.90
2022-09-29T11:58:41.431Z,49.80
2022-09-29T12:01:46.681Z,49.90
2022-09-29T12:04:53.413Z,50.50
2022-09-29T12:07:58.103Z,50.30
2022-09-29T12:10:53.167Z,50.30
2022-09-29T12:13:43.701Z,50.40
2022-09-29T12:16:21.529Z,50.50
2022-09-29T12:18:52.933Z,50.60
2022-09-29T12:21:33.638Z,50.60
2022-09-29T12:24:03.637Z,50.60
2022-09-29T12:26:32.038Z,50.50
2022-09-29T12:29:06.064Z,50.80
2022-09-29T12:31:49.593Z,51.00
2022-09-29T12:34:27.019Z,51.00
2022-09-29T12:37:12.553Z,51.00
2022-09-29T12:39:59.576Z,50.90
2022-09-29T12:43:00.464Z,51.10
2022-09-29T12:46:01.262Z,51.10
2022-09-29T12:48:56.719Z,51.00
2022-09-29T12:51:34.001Z,51.10
2022-09-29T12:54:41.449Z,51.00
2022-09-29T12:57:16.516Z,51.10
2022-09-29T13:00:06.122Z,50.80
2022-09-29T13:03:12.867Z,50.70
2022-09-29T13:06:15.196Z,50.60
2022-09-29T13:09:05.200Z,50.60
2022-09-29T13:12:11.158Z,50.60
2022-09-29T13:15:17.974Z,50.60
2022-09-29T13:18:17.555Z,50.50
2022-09-29T13:21:05.797Z,50.50
2022-09-29T13:23:54.644Z,50.60
2022-09-29T13:26:50.697Z,50.60
2022-09-29T13:29:23.908Z,50.60
2022-09-29T13:31:54.637Z,50.70
2022-09-29T13:34:34.139Z,50.70
2022-09-29T13:37:17.685Z,50.80
2022-09-29T13:39:59.385Z,50.80
2022-09-29T13:42:43.352Z,50.90
2022-09-29T13:45:39.445Z,50.70
2022-09-29T13:48:35.088Z,50.80
2022-09-29T13:51:23.216Z,50.70
2022-09-29T13:54:30.009Z,50.60
2022-09-29T13:57:28.057Z,50.70
2022-09-29T14:00:15.004Z,50.60
2022-09-29T14:02:52.321Z,50.70
2022-09-29T14:05:38.321Z,50.70
2022-09-29T14:08:20.989Z,50.80
2022-09-29T14:11:16.301Z,50.80
2022-09-29T14:13:54.253Z,50.90
2022-09-29T14:16:32.168Z,50.80
2022-09-29T14:19:35.476Z,51.00
2022-09-29T14:22:23.439Z,51.00
2022-09-29T14:24:51.619Z,51.00
2022-09-29T14:27:58.906Z,51.10
2022-09-29T14:30:44.286Z,51.00
2022-09-29T14:33:20.212Z,51.20
2022-09-29T14:36:03.844Z,51.50
2022-09-29T14:39:02.612Z,51.50
2022-09-29T14:41:43.938Z,51.40
2022-09-29T14:44:25.683Z,51.50
2022-09-29T14:47:41.095Z,51.70
2022-09-29T14:50:55.364Z,51.70
2022-09-29T14:53:49.557Z,51.70
2022-09-29T14:56:52.332Z,51.80
2022-09-29T14:59:53.454Z,51.60
2022-09-29T15:02:28.975Z,51.50
2022-09-29T15:04:56.549Z,51.60
2022-09-29T15:07:26.425Z,52.10
2022-09-29T15:09:57.210Z,51.80
2022-09-29T15:12:31.764Z,51.70
2022-09-29T15:15:00.335Z,51.80
2022-09-29T15:17:53.605Z,52.10
2022-09-29T15:20:46.098Z,52.30
2022-09-29T15:23:53.040Z,52.20
2022-09-29T15:26:20.957Z,52.10
2022-09-29T15:28:48.063Z,52.10
2022-09-29T15:31:21.834Z,52.20
2022-09-29T15:33:49.651Z,52.80
2022-09-29T15:36:23.359Z,53.00
2022-09-29T15:38:55.332Z,53.20
2022-09-29T15:41:29.189Z,53.10
2022-09-29T15:44:18.181Z,53.00
2022-09-29T15:46:52.782Z,53.00
2022-09-29T15:49:21.958Z,53.00
2022-09-29T15:52:06.846Z,52.90
2022-09-29T15:54:40.709Z,52.90
2022-09-29T15:57:28.190Z,53.70
2022-09-29T15:59:56.388Z,54.70
2022-09-29T16:02:35.184Z,55.40
2022-09-29T16:05:11.942Z,55.70
2022-09-29T16:07:49.020Z,55.70
2022-09-29T16:10:19.173Z,55.40
2022-09-29T16:13:00.488Z,55.00
2022-09-29T16:15:32.151Z,54.70
2022-09-29T16:18:02.367Z,54.50
2022-09-29T16:20:30.415Z,54.30
2022-09-29T16:23:06.155Z,54.30
2022-09-29T16:25:34.653Z,54.20
2022-09-29T16:28:05.979Z,54.20
2022-09-29T16:30:40.854Z,54.60
2022-09-29T16:33:20.275Z,54.40
2022-09-29T16:36:01.411Z,54.60
2022-09-29T16:38:45.084Z,55.30
2022-09-29T16:41:39.327Z,54.90
2022-09-29T16:44:17.495Z,55.00
2022-09-29T16:47:14.510Z,55.00
2022-09-29T16:50:03.543Z,55.00
2022-09-29T16:52:42.033Z,55.10
2022-09-29T16:55:28.100Z,55.20
2022-09-29T16:58:04.121Z,55.30
2022-09-29T17:00:31.710Z,55.30
2022-09-29T17:02:58.852Z,55.30
2022-09-29T17:05:26.473Z,55.40
2022-09-29T17:08:02.453Z,55.40
2022-09-29T17:10:30.126Z,55.40
2022-09-29T17:12:58.134Z,55.60
2022-09-29T17:15:26.085Z,55.70
2022-09-29T17:17:53.197Z,55.70
2022-09-29T17:20:30.105Z,55.70
2022-09-29T17:23:00.008Z,55.80
2022-09-29T17:25:27.358Z,55.80
2022-09-29T17:28:14.221Z,55.90
2022-09-29T17:30:45.753Z,55.90
2022-09-29T17:33:16.289Z,55.90
2022-09-29T17:35:45.891Z,55.90
2022-09-29T17:38:14.445Z,55.90
2022-09-29T17:40:57.561Z,55.90
2022-09-29T17:43:24.843Z,55.90
2022-09-29T17:45:54.670Z,55.90
2022-09-29T17:48:22.288Z,55.90
2022-09-29T17:50:50.941Z,55.90
2022-09-29T17:53:18.744Z,55.80
2022-09-29T17:55:51.541Z,55.80
2022-09-29T17:58:20.072Z,55.70
2022-09-29T18:00:50.149Z,55.70
2022-09-29T18:03:20.296Z,55.70
2022-09-29T18:05:55.830Z,55.60
2022-09-29T18:08:25.980Z,55.60
2022-09-29T18:10:56.345Z,55.50
2022-09-29T18:13:23.858Z,56.10
2022-09-29T18:15:51.121Z,55.50
2022-09-29T18:18:20.888Z,55.50
2022-09-29T18:20:50.323Z,55.50
2022-09-29T18:23:19.498Z,55.50
2022-09-29T18:25:48.715Z,55.50
2022-09-29T18:28:16.633Z,55.50
2022-09-29T18:30:46.135Z,55.50
2022-09-29T18:33:18.180Z,55.40
2022-09-29T18:35:52.707Z,55.40
2022-09-29T18:38:20.102Z,55.40
2022-09-29T18:40:47.517Z,55.40
2022-09-29T18:43:15.276Z,55.40
2022-09-29T18:45:43.897Z,55.40
2022-09-29T18:48:13.096Z,55.40
2022-09-29T18:50:48.982Z,55.40
2022-09-29T18:53:18.041Z,55.50
2022-09-29T18:55:45.091Z,55.40
2022-09-29T18:58:14.423Z,55.40
2022-09-29T19:00:48.097Z,55.40
2022-09-29T19:03:15.195Z,55.40
2022-09-29T19:05:43.464Z,55.40
2022-09-29T19:08:14.503Z,55.40
2022-09-29T19:10:47.487Z,55.40
2022-09-29T19:13:16.693Z,55.90
2022-09-29T19:15:44.923Z,55.30
2022-09-29T19:18:18.564Z,55.30
2022-09-29T19:20:45.652Z,55.30
2022-09-29T19:23:12.886Z,55.30
2022-09-29T19:25:40.933Z,55.30
2022-09-29T19:28:08.015Z,55.30
2022-09-29T19:30:38.493Z,55.30
2022-09-29T19:33:07.600Z,55.40
2022-09-29T19:35:35.785Z,55.40
2022-09-29T19:38:04.044Z,55.40
2022-09-29T19:40:34.625Z,55.40
2022-09-29T19:43:08.362Z,55.90
2022-09-29T19:45:38.971Z,55.40
2022-09-29T19:48:08.220Z,55.30
2022-09-29T19:50:55.164Z,55.30
2022-09-29T19:53:22.390Z,55.30
2022-09-29T19:55:49.464Z,55.30
2022-09-29T19:58:16.669Z,55.30
2022-09-29T20:00:46.808Z,55.30
2022-09-29T20:03:13.945Z,55.30
2022-09-29T20:05:41.441Z,55.20
2022-09-29T20:08:08.706Z,55.10
2022-09-29T20:10:36.408Z,55.60
2022-09-29T20:13:03.911Z,55.10
2022-09-29T20:15:30.993Z,55.10
2022-09-29T20:17:58.019Z,55.00
2022-09-29T20:20:25.177Z,55.00
2022-09-29T20:22:53.521Z,55.00
2022-09-29T20:25:21.568Z,55.00
2022-09-29T20:27:51.920Z,55.00
2022-09-29T20:30:20.908Z,54.90
2022-09-29T20:32:48.374Z,54.90
2022-09-29T20:35:15.485Z,54.90
2022-09-29T20:37:42.751Z,54.90
2022-09-29T20:40:10.443Z,54.90
2022-09-29T20:42:38.562Z,54.90
2022-09-29T20:45:07.985Z,54.90
2022-09-29T20:47:36.466Z,54.90
2022-09-29T20:50:05.109Z,54.90
2022-09-29T20:52:32.260Z,54.90
2022-09-29T20:55:02.600Z,54.90
2022-09-29T20:57:29.501Z,54.90
2022-09-29T20:59:56.467Z,54.90
2022-09-29T21:02:23.897Z,54.80
2022-09-29T21:04:50.974Z,54.90
2022-09-29T21:07:37.882Z,54.80
2022-09-29T21:10:06.364Z,54.80
2022-09-29T21:12:34.281Z,54.80
2022-09-29T21:15:02.420Z,54.80
2022-09-29T21:17:30.184Z,54.80
2022-09-29T21:19:57.387Z,54.80
2022-09-29T21:22:27.795Z,54.80
2022-09-29T21:24:55.278Z,54.80
2022-09-29T21:27:22.492Z,54.80
2022-09-29T21:29:49.676Z,54.80
2022-09-29T21:32:17.704Z,54.80
2022-09-29T21:34:44.709Z,54.90
2022-09-29T21:37:11.808Z,54.90
2022-09-29T21:39:38.822Z,54.90
2022-09-29T21:42:05.845Z,54.90
2022-09-29T21:44:34.028Z,54.90
2022-09-29T21:47:01.117Z,54.90
2022-09-29T21:49:28.167Z,55.50
2022-09-29T21:51:57.148Z,54.90
2022-09-29T21:54:27.126Z,55.00
2022-09-29T21:56:54.214Z,54.90
2022-09-29T21:59:22.856Z,54.90
2022-09-29T22:01:50.743Z,54.90
2022-09-29T22:04:18.685Z,54.90
2022-09-29T22:06:45.965Z,54.90
2022-09-29T22:09:17.239Z,54.80
2022-09-29T22:11:44.872Z,54.80
2022-09-29T22:14:13.653Z,54.70
2022-09-29T22:16:40.938Z,54.70
2022-09-29T22:19:32.572Z,54.60
2022-09-29T22:21:55.136Z,54.70
2022-09-29T22:24:24.147Z,54.70
2022-09-29T22:26:51.373Z,54.60
2022-09-29T22:29:18.535Z,54.60
2022-09-29T22:31:46.228Z,54.60
2022-09-29T22:34:13.351Z,54.60
2022-09-29T22:36:40.471Z,54.50
2022-09-29T22:39:08.241Z,54.50
2022-09-29T22:41:39.649Z,54.60
2022-09-29T22:44:07.609Z,54.50
2022-09-29T22:46:35.277Z,54.50
2022-09-29T22:49:02.548Z,54.50
2022-09-29T22:51:29.727Z,54.50
2022-09-29T22:53:56.752Z,54.50
2022-09-29T22:56:30.750Z,54.50
2022-09-29T22:59:02.458Z,54.50
2022-09-29T23:01:29.681Z,54.50
2022-09-29T23:03:57.058Z,55.00
2022-09-29T23:06:24.394Z,54.50
2022-09-29T23:08:53.111Z,54.60
2022-09-29T23:11:20.789Z,54.50
2022-09-29T23:13:48.192Z,54.50
2022-09-29T23:16:16.804Z,54.50
2022-09-29T23:18:45.649Z,54.50
2022-09-29T23:21:15.003Z,54.60
2022-09-29T23:23:42.140Z,54.50
2022-09-29T23:26:09.450Z,54.50
2022-09-29T23:28:36.592Z,54.50
2022-09-29T23:31:06.146Z,54.50
2022-09-29T23:33:33.434Z,54.50
2022-09-29T23:36:15.350Z,54.50
2022-09-29T23:39:04.078Z,54.50
2022-09-29T23:41:32.363Z,54.50
2022-09-29T23:44:05.488Z,54.60
2022-09-29T23:46:35.939Z,54.60
2022-09-29T23:49:09.621Z,54.60
2022-09-29T23:51:39.140Z,54.50
2022-09-29T23:54:07.441Z,54.60
2022-09-29T23:56:35.282Z,54.60
2022-09-29T23:59:02.673Z,54.60
